Time;durP1;ratioP1;P1;durP2;ratioP2;P2;SDS_P1;SDS_P2;PMS_P1;PMS_P2;Temp;Humidity;BMP_temperature;BMP_pressure;BME280_temperature;BME280_humidity;BME280_pressure;Samples;Min_cycle;Max_cycle;Signal;HPM_P1;HPM_P2
2022/06/23 00:02:28;;;;;;;34.53;27.67;;;18.80;96.60;;;;;;4868450;29;20205;-63
2022/06/23 00:05:00;;;;;;;31.27;26.67;;;18.80;96.60;;;;;;4885176;29;20195;-63
2022/06/23 00:07:28;;;;;;;33.30;26.67;;;18.80;96.70;;;;;;4884290;29;20188;-63
2022/06/23 00:09:59;;;;;;;30.63;24.27;;;18.80;96.70;;;;;;4884825;29;20189;-63
2022/06/23 00:12:32;;;;;;;30.60;26.27;;;18.80;96.70;;;;;;4886244;29;20194;-63
2022/06/23 00:15:06;;;;;;;34.60;27.37;;;18.80;96.80;;;;;;4874548;29;20192;-63
2022/06/23 00:17:37;;;;;;;35.77;28.67;;;18.90;96.90;;;;;;4880302;29;20199;-62
2022/06/23 00:20:10;;;;;;;30.67;26.23;;;18.80;96.80;;;;;;4899221;29;20315;-62
2022/06/23 00:22:39;;;;;;;34.70;26.37;;;18.80;96.80;;;;;;4880046;29;20180;-63
2022/06/23 00:25:07;;;;;;;31.13;26.70;;;18.80;96.70;;;;;;4884307;29;20209;-63
2022/06/23 00:27:38;;;;;;;29.40;25.27;;;18.80;96.70;;;;;;4882507;29;20279;-63
2022/06/23 00:30:36;;;;;;;30.83;25.33;;;18.70;96.70;;;;;;4883087;29;20212;-63
2022/06/23 00:33:17;;;;;;;31.23;25.97;;;18.70;96.70;;;;;;4881816;29;20193;-63
2022/06/23 00:35:44;;;;;;;29.50;25.63;;;18.70;96.80;;;;;;4875786;29;20192;-63
2022/06/23 00:38:39;;;;;;;31.20;26.83;;;18.70;96.80;;;;;;4868503;29;20251;-62
2022/06/23 00:41:13;;;;;;;33.23;27.13;;;18.80;97.00;;;;;;4881948;29;20215;-63
2022/06/23 00:43:44;;;;;;;33.30;27.90;;;18.80;97.00;;;;;;4884381;29;20202;-63
2022/06/23 00:46:35;;;;;;;33.97;25.70;;;18.80;97.00;;;;;;4874518;29;20196;-62
2022/06/23 00:49:30;;;;;;;33.00;27.60;;;18.80;96.90;;;;;;4882477;29;20195;-62
2022/06/23 00:52:03;;;;;;;34.50;25.97;;;18.80;96.90;;;;;;4879431;29;20224;-62
2022/06/23 00:54:36;;;;;;;28.67;25.50;;;18.70;96.90;;;;;;4883594;29;20185;-63
2022/06/23 00:57:15;;;;;;;32.97;24.50;;;18.70;96.90;;;;;;4898430;29;20184;-63
2022/06/23 00:59:53;;;;;;;32.03;24.67;;;18.70;96.90;;;;;;4877550;29;20188;-63
2022/06/23 01:02:27;;;;;;;33.87;24.87;;;18.70;96.90;;;;;;4882924;29;20214;-63
2022/06/23 01:05:01;;;;;;;30.53;24.90;;;18.70;96.80;;;;;;4883842;29;20315;-62
2022/06/23 01:07:36;;;;;;;28.73;24.63;;;18.70;96.90;;;;;;4899667;29;20219;-63
2022/06/23 01:10:21;;;;;;;28.50;24.03;;;18.70;96.80;;;;;;4884011;29;20194;-63
2022/06/23 01:13:03;;;;;;;28.13;23.60;;;18.60;96.80;;;;;;4899612;29;20263;-63
2022/06/23 01:15:36;;;;;;;28.97;24.93;;;18.60;96.80;;;;;;4883601;29;20187;-63
2022/06/23 01:18:06;;;;;;;29.10;23.53;;;18.70;96.80;;;;;;4884059;29;20192;-63
2022/06/23 01:20:56;;;;;;;31.43;24.57;;;18.60;96.80;;;;;;4883192;29;20314;-63
2022/06/23 01:23:54;;;;;;;32.87;25.57;;;18.70;96.80;;;;;;4899873;29;20258;-63
2022/06/23 01:26:57;;;;;;;29.50;23.60;;;18.60;96.80;;;;;;4899043;29;20228;-63
2022/06/23 01:29:50;;;;;;;27.53;22.20;;;18.60;96.80;;;;;;4883243;29;20191;-63
2022/06/23 01:32:21;;;;;;;28.77;23.53;;;18.60;96.90;;;;;;4876046;29;20192;-63
2022/06/23 01:35:16;;;;;;;27.50;21.90;;;18.70;96.90;;;;;;4881626;29;20272;-63
2022/06/23 01:37:49;;;;;;;24.17;21.27;;;18.70;96.90;;;;;;4883125;29;20196;-63
2022/06/23 01:40:27;;;;;;;27.57;23.13;;;18.70;97.00;;;;;;4879723;29;20227;-63
2022/06/23 01:42:55;;;;;;;25.70;22.57;;;18.70;97.00;;;;;;4883166;29;20184;-63
2022/06/23 01:45:34;;;;;;;25.33;22.30;;;18.70;96.90;;;;;;4882765;29;20192;-63
2022/06/23 01:48:05;;;;;;;27.87;23.00;;;18.70;96.90;;;;;;4898929;29;20251;-63
2022/06/23 01:50:40;;;;;;;24.90;21.10;;;18.60;96.90;;;;;;4883242;29;20188;-63
2022/06/23 01:53:34;;;;;;;24.73;22.00;;;18.60;96.80;;;;;;4874444;29;20195;-63
2022/06/23 01:56:22;;;;;;;30.00;23.37;;;18.70;97.00;;;;;;4888631;29;20208;-63
2022/06/23 01:58:58;;;;;;;27.93;23.80;;;18.60;97.00;;;;;;4868245;29;20240;-63
2022/06/23 02:01:45;;;;;;;28.43;23.53;;;18.60;97.00;;;;;;4866992;29;20223;-63
2022/06/23 02:04:21;;;;;;;29.80;23.10;;;18.70;97.00;;;;;;4882365;29;20223;-63
2022/06/23 02:07:21;;;;;;;23.47;20.97;;;18.70;97.00;;;;;;4899227;29;20188;-63
2022/06/23 02:09:50;;;;;;;24.57;21.73;;;18.70;97.00;;;;;;4865872;29;20207;-63
2022/06/23 02:12:43;;;;;;;24.83;22.13;;;18.70;97.00;;;;;;4882502;29;20203;-63
2022/06/23 02:15:26;;;;;;;24.50;21.77;;;18.70;97.00;;;;;;4867811;29;20208;-63
2022/06/23 02:18:20;;;;;;;27.20;21.70;;;18.60;97.00;;;;;;4896846;29;20287;-63
2022/06/23 02:21:24;;;;;;;27.27;22.07;;;18.60;96.90;;;;;;4881076;29;20211;-63
2022/06/23 02:23:50;;;;;;;23.70;20.97;;;18.60;96.90;;;;;;4882058;29;20234;-63
2022/06/23 02:26:38;;;;;;;25.33;22.53;;;18.60;97.00;;;;;;4882285;29;20274;-63
2022/06/23 02:29:17;;;;;;;24.20;21.30;;;18.70;97.00;;;;;;4845088;29;20200;-63
2022/06/23 02:32:06;;;;;;;25.70;21.77;;;18.60;97.00;;;;;;4893657;29;20188;-63
2022/06/23 02:34:48;;;;;;;25.80;21.17;;;18.60;97.00;;;;;;4879056;29;20336;-63
2022/06/23 02:37:50;;;;;;;27.57;23.07;;;18.70;97.00;;;;;;4874890;29;20317;-63
2022/06/23 02:40:39;;;;;;;24.17;21.57;;;18.60;97.00;;;;;;4879291;29;20241;-63
2022/06/23 02:43:09;;;;;;;23.00;20.57;;;18.60;97.00;;;;;;4832196;29;20232;-63
2022/06/23 02:45:53;;;;;;;23.97;20.83;;;18.60;97.00;;;;;;4886863;29;20279;-63
2022/06/23 02:48:25;;;;;;;23.50;20.23;;;18.70;97.00;;;;;;4882220;29;20194;-63
2022/06/23 02:51:13;;;;;;;23.30;20.63;;;18.60;97.00;;;;;;4878441;29;20187;-63
2022/06/23 02:54:11;;;;;;;24.27;21.33;;;18.70;97.10;;;;;;4884114;29;20274;-63
2022/06/23 02:57:03;;;;;;;23.53;21.13;;;18.70;97.10;;;;;;4874174;29;20203;-63
2022/06/23 02:59:40;;;;;;;23.30;20.80;;;18.70;97.10;;;;;;4881233;29;20194;-63
2022/06/23 03:02:12;;;;;;;26.57;23.30;;;18.70;97.10;;;;;;4878475;29;20191;-62
2022/06/23 03:04:47;;;;;;;31.63;24.13;;;18.70;97.10;;;;;;4884854;29;20183;-62
2022/06/23 03:07:30;;;;;;;24.00;21.57;;;18.60;97.00;;;;;;4873478;29;20197;-63
2022/06/23 03:10:24;;;;;;;25.90;21.33;;;18.60;97.00;;;;;;4875019;29;20200;-62
2022/06/23 03:12:59;;;;;;;24.30;21.83;;;18.60;97.00;;;;;;4880083;29;20196;-62
2022/06/23 03:15:27;;;;;;;27.97;22.70;;;18.60;97.00;;;;;;4885717;29;20206;-64
2022/06/23 03:17:59;;;;;;;29.93;22.30;;;18.60;97.00;;;;;;4885435;29;20196;-63
2022/06/23 03:20:49;;;;;;;26.70;23.60;;;18.60;97.00;;;;;;4874141;29;20219;-63
2022/06/23 03:23:38;;;;;;;28.87;23.00;;;18.60;97.10;;;;;;4877602;29;20196;-63
2022/06/23 03:26:19;;;;;;;29.80;23.33;;;18.60;97.10;;;;;;4893961;29;20240;-63
2022/06/23 03:29:28;;;;;;;31.33;23.50;;;18.60;97.10;;;;;;4879892;29;20176;-63
2022/06/23 03:32:18;;;;;;;26.43;22.13;;;18.60;97.10;;;;;;4847087;29;20236;-63
2022/06/23 03:34:52;;;;;;;27.50;22.53;;;18.60;97.10;;;;;;4891867;29;20216;-62
2022/06/23 03:37:25;;;;;;;29.00;23.37;;;18.60;97.10;;;;;;4887897;29;20279;-62
2022/06/23 03:42:56;;;;;;;27.20;22.17;;;18.70;97.20;;;;;;4887863;29;20325;-62
2022/06/23 03:45:30;;;;;;;28.73;23.40;;;18.70;97.20;;;;;;4877052;29;20181;-62
2022/06/23 03:48:05;;;;;;;28.13;22.97;;;18.70;97.20;;;;;;4872108;29;20332;-62
2022/06/23 03:50:53;;;;;;;23.20;20.70;;;18.70;97.20;;;;;;4885283;29;20215;-62
2022/06/23 03:53:26;;;;;;;26.97;21.77;;;18.70;97.20;;;;;;4895508;29;20253;-63
2022/06/23 03:55:57;;;;;;;26.87;22.90;;;18.70;97.30;;;;;;4882462;29;20203;-63
2022/06/23 03:58:28;;;;;;;25.77;22.23;;;18.70;97.30;;;;;;4901074;29;20196;-63
2022/06/23 04:01:18;;;;;;;31.63;22.27;;;18.70;97.30;;;;;;4892252;29;20215;-63
2022/06/23 04:03:54;;;;;;;26.47;22.23;;;18.80;97.30;;;;;;4884841;29;20204;-63
2022/06/23 04:06:41;;;;;;;26.07;21.07;;;18.80;97.30;;;;;;4881164;29;20196;-64
2022/06/23 04:09:18;;;;;;;24.60;21.43;;;18.80;97.30;;;;;;4884868;29;20225;-63
2022/06/23 04:11:55;;;;;;;20.43;18.13;;;18.80;97.30;;;;;;4874174;29;20199;-64
2022/06/23 04:14:23;;;;;;;22.23;19.83;;;18.80;97.30;;;;;;4883386;29;20279;-63
2022/06/23 04:16:57;;;;;;;22.57;20.13;;;18.70;97.20;;;;;;4881365;29;20197;-63
2022/06/23 04:19:31;;;;;;;21.67;19.37;;;18.80;97.20;;;;;;4890897;29;20193;-63
2022/06/23 04:22:05;;;;;;;25.80;19.77;;;18.70;97.20;;;;;;4878488;29;20205;-63
2022/06/23 04:24:34;;;;;;;22.70;19.53;;;18.70;97.20;;;;;;4887885;29;20240;-63
2022/06/23 04:27:18;;;;;;;25.53;19.57;;;18.70;97.20;;;;;;4884402;29;20228;-63
2022/06/23 04:29:49;;;;;;;23.77;19.00;;;18.80;97.20;;;;;;4869962;29;20184;-63
2022/06/23 04:32:20;;;;;;;23.53;20.53;;;18.70;97.20;;;;;;4859261;29;20200;-63
2022/06/23 04:35:04;;;;;;;22.30;19.97;;;18.80;97.30;;;;;;4879844;29;20180;-63
2022/06/23 04:37:50;;;;;;;22.63;20.20;;;18.80;97.20;;;;;;4893514;29;20180;-63
2022/06/23 04:40:30;;;;;;;22.47;20.10;;;18.80;97.30;;;;;;4878601;29;20211;-64
2022/06/23 04:43:04;;;;;;;24.27;20.70;;;18.80;97.30;;;;;;4879519;29;20180;-64
2022/06/23 04:45:36;;;;;;;22.00;19.67;;;18.80;97.30;;;;;;4878647;29;20188;-64
2022/06/23 04:48:06;;;;;;;21.60;19.40;;;18.80;97.30;;;;;;4882951;29;20198;-64
2022/06/23 04:50:59;;;;;;;21.93;19.60;;;18.90;97.40;;;;;;4880188;29;20199;-64
2022/06/23 04:53:37;;;;;;;23.20;20.83;;;19.00;97.40;;;;;;4881851;29;20195;-64
2022/06/23 04:56:15;;;;;;;26.07;21.20;;;19.00;97.30;;;;;;4881748;29;20188;-64
2022/06/23 04:58:47;;;;;;;24.83;21.23;;;19.00;97.40;;;;;;4882451;29;20198;-64
2022/06/23 05:01:17;;;;;;;24.80;22.20;;;19.00;97.40;;;;;;4877365;29;20214;-64
2022/06/23 05:03:54;;;;;;;23.70;21.20;;;19.00;97.40;;;;;;4881372;29;20224;-64
2022/06/23 05:06:27;;;;;;;23.90;21.40;;;19.10;97.30;;;;;;4879999;29;20206;-64
2022/06/23 05:08:53;;;;;;;23.53;20.73;;;19.10;97.40;;;;;;4881121;29;20199;-64
2022/06/23 05:11:29;;;;;;;22.43;20.10;;;19.20;97.40;;;;;;4856700;29;20195;-64
2022/06/23 05:14:00;;;;;;;22.43;19.70;;;19.20;97.40;;;;;;4876798;29;20192;-64
2022/06/23 05:16:36;;;;;;;22.63;20.07;;;19.20;97.40;;;;;;4894644;29;20202;-63
2022/06/23 05:19:09;;;;;;;23.03;19.63;;;19.20;97.40;;;;;;4880991;29;20187;-64
2022/06/23 05:21:45;;;;;;;24.43;20.43;;;19.30;97.40;;;;;;4889794;29;20270;-63
2022/06/23 05:24:39;;;;;;;22.07;19.73;;;19.30;97.30;;;;;;4894614;29;20188;-63
2022/06/23 05:27:28;;;;;;;21.90;19.60;;;19.30;97.40;;;;;;4874584;29;20235;-63
2022/06/23 05:30:26;;;;;;;23.57;20.03;;;19.30;97.40;;;;;;4877022;29;20192;-63
2022/06/23 05:33:06;;;;;;;23.07;18.73;;;19.30;97.30;;;;;;4880495;29;20192;-65
2022/06/23 05:35:42;;;;;;;21.33;19.20;;;19.30;97.30;;;;;;4895539;29;20180;-64
2022/06/23 05:38:32;;;;;;;23.33;19.50;;;19.40;97.30;;;;;;4893961;29;20240;-64
2022/06/23 05:41:07;;;;;;;20.77;18.67;;;19.30;97.30;;;;;;4880182;29;20221;-64
2022/06/23 05:43:40;;;;;;;21.17;19.00;;;19.40;97.30;;;;;;4869216;29;20181;-64
2022/06/23 05:46:07;;;;;;;19.90;17.97;;;19.40;97.30;;;;;;4868475;29;20179;-63
2022/06/23 05:48:41;;;;;;;19.83;17.50;;;19.40;97.20;;;;;;4879872;29;20565;-63
2022/06/23 05:51:09;;;;;;;19.17;17.27;;;19.50;97.30;;;;;;4874952;29;20184;-64
2022/06/23 05:53:39;;;;;;;19.30;17.17;;;19.50;97.10;;;;;;4873166;29;20280;-64
2022/06/23 05:56:10;;;;;;;20.83;18.03;;;19.50;97.10;;;;;;4878036;29;20258;-63
2022/06/23 05:58:58;;;;;;;20.33;18.27;;;19.50;97.10;;;;;;4873991;29;20183;-64
2022/06/23 06:01:39;;;;;;;21.37;19.23;;;19.60;97.10;;;;;;4878101;29;20286;-64
2022/06/23 06:04:29;;;;;;;20.50;18.40;;;19.60;97.20;;;;;;4879686;29;20219;-64
2022/06/23 06:06:55;;;;;;;20.77;18.40;;;19.60;97.10;;;;;;4879049;29;20180;-64
2022/06/23 06:09:36;;;;;;;20.93;18.90;;;19.70;97.20;;;;;;4849808;29;20184;-64
2022/06/23 06:12:14;;;;;;;20.97;18.77;;;19.80;97.20;;;;;;4892770;29;20203;-65
2022/06/23 06:14:44;;;;;;;20.80;18.70;;;19.80;97.00;;;;;;4867236;29;20183;-65
2022/06/23 06:17:18;;;;;;;20.77;18.77;;;19.80;97.00;;;;;;4887982;29;20235;-65
2022/06/23 06:19:45;;;;;;;20.93;18.83;;;19.80;97.00;;;;;;4879798;29;20187;-65
2022/06/23 06:22:26;;;;;;;20.93;18.47;;;19.80;96.80;;;;;;4879605;29;20191;-65
2022/06/23 06:24:54;;;;;;;21.37;19.03;;;19.80;96.90;;;;;;4870486;29;20184;-65
2022/06/23 06:27:19;;;;;;;19.43;16.63;;;19.90;97.00;;;;;;4861185;29;20232;-65
2022/06/23 06:29:46;;;;;;;20.20;16.03;;;19.90;96.40;;;;;;4877120;29;20268;-65
2022/06/23 06:32:19;;;;;;;19.13;16.90;;;19.80;95.90;;;;;;4861373;29;20199;-65
2022/06/23 06:34:50;;;;;;;18.20;15.83;;;19.90;96.30;;;;;;4872669;29;20184;-65
2022/06/23 06:37:18;;;;;;;20.33;16.80;;;19.90;95.90;;;;;;4893643;29;20221;-65
2022/06/23 06:39:48;;;;;;;22.33;19.03;;;20.00;96.30;;;;;;4878981;29;20241;-65
2022/06/23 06:42:26;;;;;;;20.13;17.93;;;20.10;96.60;;;;;;4872244;29;20260;-65
2022/06/23 06:44:56;;;;;;;20.57;17.53;;;20.20;96.40;;;;;;4871736;29;20235;-65
2022/06/23 06:47:25;;;;;;;21.57;17.83;;;20.20;96.00;;;;;;4857258;29;20192;-65
2022/06/23 06:49:53;;;;;;;21.93;19.63;;;20.20;96.10;;;;;;4878469;29;20191;-65
2022/06/23 06:52:19;;;;;;;19.27;17.03;;;20.30;96.30;;;;;;4879061;29;20184;-65
2022/06/23 06:54:46;;;;;;;13.93;12.43;;;20.30;96.10;;;;;;4845089;29;20188;-65
2022/06/23 06:57:32;;;;;;;15.57;12.63;;;20.30;95.10;;;;;;4869218;29;20195;-65
2022/06/23 07:00:11;;;;;;;18.20;14.47;;;20.20;93.70;;;;;;4876270;29;20206;-65
2022/06/23 07:02:49;;;;;;;15.93;12.80;;;20.20;94.60;;;;;;4869208;29;20220;-65
2022/06/23 07:05:17;;;;;;;14.20;12.83;;;20.10;93.60;;;;;;4878957;29;20290;-65
2022/06/23 07:07:50;;;;;;;17.73;13.83;;;20.10;93.70;;;;;;4873359;29;20184;-65
2022/06/23 07:10:53;;;;;;;12.40;11.23;;;20.00;94.30;;;;;;4895914;29;20203;-65
2022/06/23 07:13:24;;;;;;;15.03;13.40;;;20.00;94.10;;;;;;4874745;29;20188;-65
2022/06/23 07:16:05;;;;;;;16.70;13.77;;;20.00;94.40;;;;;;4873303;29;20195;-65
2022/06/23 07:18:49;;;;;;;16.10;14.37;;;20.00;94.80;;;;;;4878998;29;20237;-65
2022/06/23 07:21:36;;;;;;;17.63;11.93;;;20.00;95.10;;;;;;4879377;29;20231;-65
2022/06/23 07:24:19;;;;;;;16.10;13.33;;;20.00;93.90;;;;;;4878108;29;20204;-65
2022/06/23 07:27:10;;;;;;;15.40;13.87;;;20.00;94.80;;;;;;4895258;29;20236;-65
2022/06/23 07:30:00;;;;;;;17.67;14.47;;;20.00;95.50;;;;;;4867101;29;20204;-65
2022/06/23 07:32:45;;;;;;;17.17;14.57;;;20.00;95.80;;;;;;4874217;29;20181;-65
2022/06/23 07:35:36;;;;;;;15.20;13.27;;;20.10;95.90;;;;;;4873528;29;20188;-65
2022/06/23 07:38:35;;;;;;;15.90;14.33;;;20.20;95.70;;;;;;4879308;29;20199;-65
2022/06/23 07:41:18;;;;;;;15.60;14.13;;;20.20;96.00;;;;;;4877934;29;20228;-65
2022/06/23 07:43:53;;;;;;;16.03;14.37;;;20.20;96.00;;;;;;4887854;29;20187;-65
2022/06/23 07:46:18;;;;;;;16.50;14.93;;;20.30;96.10;;;;;;4882715;29;20179;-65
2022/06/23 07:48:45;;;;;;;16.47;14.73;;;20.30;96.30;;;;;;4899240;29;20195;-65
2022/06/23 07:51:11;;;;;;;16.07;14.53;;;20.30;96.20;;;;;;4864678;29;20317;-65
2022/06/23 07:53:42;;;;;;;16.97;15.27;;;20.40;96.50;;;;;;4863913;29;20187;-65
2022/06/23 07:56:13;;;;;;;17.80;16.03;;;20.50;96.50;;;;;;4895472;29;20203;-65
2022/06/23 07:58:43;;;;;;;17.10;15.33;;;20.60;96.50;;;;;;4898522;29;20215;-65
2022/06/23 08:01:13;;;;;;;17.40;15.30;;;20.60;96.50;;;;;;4865928;29;20247;-65
2022/06/23 08:03:59;;;;;;;19.23;14.40;;;20.60;96.50;;;;;;4871727;29;20296;-65
2022/06/23 08:06:26;;;;;;;14.80;13.17;;;20.60;96.20;;;;;;4898054;29;20183;-65
2022/06/23 08:08:58;;;;;;;16.37;14.77;;;20.60;96.00;;;;;;4863871;29;20204;-65
2022/06/23 08:18:04;;;;;;;15.57;14.17;;;20.80;96.00;;;;;;4887884;29;20248;-65
2022/06/23 08:20:34;;;;;;;14.03;12.50;;;20.80;95.60;;;;;;4875092;29;20204;-65
2022/06/23 08:23:04;;;;;;;15.13;13.63;;;20.80;95.50;;;;;;4893185;29;20187;-65
2022/06/23 08:25:30;;;;;;;14.50;12.27;;;20.90;95.60;;;;;;4875108;29;20231;-65
2022/06/23 08:27:58;;;;;;;15.07;13.27;;;20.90;95.50;;;;;;4870039;29;20223;-65
2022/06/23 08:30:26;;;;;;;15.47;13.97;;;20.90;95.50;;;;;;4850355;29;20200;-65
2022/06/23 08:32:53;;;;;;;15.10;13.37;;;20.90;95.20;;;;;;4876882;29;20218;-66
2022/06/23 08:35:25;;;;;;;15.43;13.80;;;20.90;95.30;;;;;;4875475;29;20183;-65
2022/06/23 08:38:04;;;;;;;15.80;14.10;;;20.80;94.40;;;;;;4882761;29;20199;-65
2022/06/23 08:41:07;;;;;;;14.73;13.33;;;20.80;94.30;;;;;;4886184;29;20215;-65
2022/06/23 08:43:59;;;;;;;16.80;14.53;;;20.80;94.80;;;;;;4875305;29;20191;-65
2022/06/23 08:46:35;;;;;;;15.93;14.50;;;20.80;95.30;;;;;;4873435;29;20184;-65
2022/06/23 08:49:26;;;;;;;14.13;12.83;;;20.90;95.70;;;;;;4893610;29;20208;-65
2022/06/23 08:52:04;;;;;;;13.50;11.50;;;21.00;95.70;;;;;;4874148;29;20191;-65
2022/06/23 08:54:47;;;;;;;11.97;10.77;;;20.90;94.80;;;;;;4880152;29;20215;-65
2022/06/23 08:57:32;;;;;;;11.70;10.60;;;20.90;93.70;;;;;;4881035;29;20180;-65
2022/06/23 09:00:23;;;;;;;11.67;10.37;;;20.90;93.60;;;;;;4866044;29;20241;-65
2022/06/23 09:03:08;;;;;;;12.37;10.27;;;20.80;92.70;;;;;;4878341;29;20177;-65
2022/06/23 09:05:34;;;;;;;11.80;9.63;;;20.90;94.10;;;;;;4877848;29;20236;-65
2022/06/23 09:08:11;;;;;;;10.63;9.50;;;20.90;93.30;;;;;;4879393;29;20188;-65
2022/06/23 09:11:02;;;;;;;14.57;11.50;;;20.90;94.10;;;;;;4881309;29;20180;-65
2022/06/23 09:13:44;;;;;;;13.00;10.73;;;21.10;95.20;;;;;;4871743;29;20267;-65
2022/06/23 09:16:14;;;;;;;9.80;8.73;;;21.10;94.90;;;;;;4885990;29;20212;-65
2022/06/23 09:19:19;;;;;;;10.73;9.70;;;21.10;93.10;;;;;;4880850;29;20200;-65
2022/06/23 09:22:00;;;;;;;10.67;9.67;;;21.20;94.40;;;;;;4878305;29;20216;-65
2022/06/23 09:24:37;;;;;;;14.30;10.23;;;21.20;93.20;;;;;;4886918;29;20195;-65
2022/06/23 09:27:34;;;;;;;10.00;9.00;;;21.30;94.00;;;;;;4893989;29;20239;-65
2022/06/23 09:30:08;;;;;;;11.90;10.80;;;21.40;92.50;;;;;;4881162;29;20198;-65
2022/06/23 09:32:56;;;;;;;10.13;8.50;;;21.50;93.40;;;;;;4891027;29;20214;-65
2022/06/23 09:35:40;;;;;;;9.93;8.57;;;21.60;93.10;;;;;;4870268;29;20241;-65
2022/06/23 09:38:25;;;;;;;10.50;9.47;;;21.60;90.50;;;;;;4875086;29;20221;-65
2022/06/23 09:41:24;;;;;;;11.47;9.40;;;21.60;92.70;;;;;;4894398;29;20211;-65
2022/06/23 09:44:02;;;;;;;9.80;8.97;;;21.70;93.40;;;;;;4877140;29;20188;-65
2022/06/23 09:46:35;;;;;;;11.60;8.63;;;21.70;92.20;;;;;;4872713;29;20180;-65
2022/06/23 09:49:19;;;;;;;10.17;8.73;;;21.70;90.10;;;;;;4885828;29;20193;-65
2022/06/23 09:52:11;;;;;;;10.33;9.23;;;21.80;91.60;;;;;;4869172;29;20188;-65
2022/06/23 09:55:04;;;;;;;9.00;8.20;;;21.80;89.30;;;;;;4889698;29;20188;-66
2022/06/23 09:58:00;;;;;;;10.17;9.07;;;21.80;88.50;;;;;;4889075;29;20257;-66
2022/06/23 10:00:40;;;;;;;9.93;8.93;;;21.80;91.80;;;;;;4875974;29;20208;-65
2022/06/23 10:03:30;;;;;;;11.20;10.10;;;21.90;91.80;;;;;;4868143;29;20180;-65
2022/06/23 10:06:26;;;;;;;10.30;9.30;;;22.10;91.80;;;;;;4880382;29;20187;-66
2022/06/23 10:09:28;;;;;;;13.97;10.03;;;22.10;89.30;;;;;;4873544;29;20203;-66
2022/06/23 10:12:24;;;;;;;10.27;9.27;;;22.20;91.10;;;;;;4872841;29;20225;-66
2022/06/23 10:15:22;;;;;;;9.73;8.43;;;22.10;90.00;;;;;;4880742;29;20192;-66
2022/06/23 10:18:18;;;;;;;10.77;9.77;;;22.20;90.60;;;;;;4877065;29;20206;-65
2022/06/23 10:21:00;;;;;;;10.70;9.70;;;22.20;90.30;;;;;;4874445;29;20303;-65
2022/06/23 10:24:22;;;;;;;10.87;9.80;;;22.20;91.20;;;;;;4891297;29;20191;-66
2022/06/23 10:27:12;;;;;;;13.73;9.77;;;22.20;88.10;;;;;;4807206;29;20234;-65
2022/06/23 10:29:52;;;;;;;11.20;9.80;;;22.20;88.80;;;;;;4804965;29;20194;-66
2022/06/23 10:32:43;;;;;;;11.67;9.50;;;22.30;90.10;;;;;;4866121;29;20286;-66
2022/06/23 10:35:17;;;;;;;10.27;9.27;;;22.30;90.00;;;;;;4873466;29;20200;-66
2022/06/23 10:37:50;;;;;;;11.83;9.90;;;22.30;90.00;;;;;;4872712;29;20192;-66
2022/06/23 10:40:35;;;;;;;11.67;9.10;;;22.40;91.70;;;;;;4867328;29;20220;-66
2022/06/23 10:43:20;;;;;;;13.30;9.13;;;22.50;90.00;;;;;;4869601;29;20192;-66
2022/06/23 10:45:55;;;;;;;9.13;8.23;;;22.50;91.90;;;;;;4873787;29;20189;-66
2022/06/23 10:48:40;;;;;;;9.40;8.50;;;22.50;88.60;;;;;;4870060;29;20187;-65
2022/06/23 10:51:38;;;;;;;10.43;9.00;;;22.70;89.90;;;;;;4877403;29;20256;-66
2022/06/23 10:54:25;;;;;;;10.53;9.03;;;22.80;88.10;;;;;;4825505;29;20267;-65
2022/06/23 10:57:02;;;;;;;10.20;9.30;;;22.80;88.00;;;;;;4870385;29;20184;-66
2022/06/23 11:00:03;;;;;;;9.93;8.93;;;22.80;90.00;;;;;;4868499;29;20203;-66
2022/06/23 11:02:28;;;;;;;10.00;9.00;;;22.90;91.50;;;;;;4875832;29;20188;-66
2022/06/23 11:05:25;;;;;;;9.90;8.93;;;23.00;88.00;;;;;;4880762;29;20182;-66
2022/06/23 11:08:08;;;;;;;10.17;9.03;;;23.00;90.30;;;;;;4854214;29;20259;-65
2022/06/23 11:11:10;;;;;;;11.73;9.07;;;22.90;89.20;;;;;;4877289;29;20255;-65
2022/06/23 11:14:05;;;;;;;9.10;8.13;;;22.90;88.70;;;;;;4877368;29;20190;-64
2022/06/23 11:16:50;;;;;;;8.57;7.73;;;22.80;88.50;;;;;;4878034;29;20196;-65
2022/06/23 11:19:31;;;;;;;8.00;7.20;;;22.70;87.50;;;;;;4882596;29;20192;-64
2022/06/23 11:22:21;;;;;;;9.97;7.83;;;22.60;85.30;;;;;;4879928;29;20215;-65
2022/06/23 11:25:18;;;;;;;8.47;7.57;;;22.50;87.80;;;;;;4866584;29;20196;-65
2022/06/23 11:27:50;;;;;;;10.57;8.00;;;22.40;87.70;;;;;;4869440;29;20196;-64
2022/06/23 11:30:22;;;;;;;11.67;8.03;;;22.40;88.60;;;;;;4883893;29;20259;-65
2022/06/23 11:33:21;;;;;;;9.57;7.27;;;22.30;88.20;;;;;;4900852;29;20188;-65
2022/06/23 11:36:15;;;;;;;8.97;8.17;;;22.30;87.70;;;;;;4888455;29;20260;-65
2022/06/23 11:39:00;;;;;;;8.60;7.67;;;22.30;88.10;;;;;;4876597;29;20188;-65
2022/06/23 11:42:00;;;;;;;8.43;7.63;;;22.20;86.30;;;;;;4891538;29;20271;-65
2022/06/23 11:44:47;;;;;;;8.03;7.33;;;22.20;89.60;;;;;;4896130;29;20204;-65
2022/06/23 11:47:22;;;;;;;11.23;8.43;;;22.20;88.00;;;;;;4897147;29;20191;-65
2022/06/23 11:50:01;;;;;;;11.13;8.97;;;22.10;90.00;;;;;;4883864;29;20187;-64
2022/06/23 11:52:53;;;;;;;11.50;8.50;;;22.10;90.40;;;;;;4883462;29;20225;-64
2022/06/23 11:55:28;;;;;;;8.73;7.83;;;22.20;91.00;;;;;;4872019;29;20200;-65
2022/06/23 11:58:27;;;;;;;10.90;8.33;;;22.20;90.60;;;;;;4879473;29;20188;-64
2022/06/23 12:01:02;;;;;;;11.67;9.17;;;22.20;91.40;;;;;;4891448;29;20211;-65
2022/06/23 12:03:52;;;;;;;12.77;8.27;;;22.30;92.10;;;;;;4877923;29;20183;-66
2022/06/23 12:06:56;;;;;;;8.87;7.50;;;22.40;91.50;;;;;;4871737;29;20255;-64
2022/06/23 12:09:56;;;;;;;10.07;7.30;;;22.40;89.80;;;;;;4901348;29;20180;-64
2022/06/23 12:12:23;;;;;;;9.00;8.07;;;22.40;88.90;;;;;;4884693;29;20179;-65
2022/06/23 12:14:51;;;;;;;8.33;7.30;;;22.40;89.90;;;;;;4867582;29;20209;-64
2022/06/23 12:17:37;;;;;;;8.63;7.23;;;22.50;90.50;;;;;;4874835;29;20195;-63
2022/06/23 12:20:12;;;;;;;8.57;6.80;;;22.50;89.30;;;;;;4898179;29;20184;-63
2022/06/23 12:22:53;;;;;;;7.40;6.60;;;22.50;88.40;;;;;;4874020;29;20200;-63
2022/06/23 12:25:38;;;;;;;7.40;6.70;;;22.50;88.30;;;;;;4874912;29;20207;-63
2022/06/23 12:28:03;;;;;;;8.57;6.33;;;22.60;87.70;;;;;;4898165;29;20195;-63
2022/06/23 12:30:35;;;;;;;7.30;6.03;;;22.60;87.40;;;;;;4876806;29;20199;-63
2022/06/23 12:33:13;;;;;;;8.37;6.37;;;22.90;87.80;;;;;;4873310;29;20193;-64
2022/06/23 12:35:57;;;;;;;7.60;6.10;;;23.10;83.40;;;;;;4896798;29;20191;-64
2022/06/23 12:38:29;;;;;;;7.30;6.43;;;23.00;86.30;;;;;;4882141;29;20187;-64
2022/06/23 12:41:01;;;;;;;6.60;5.93;;;22.80;86.50;;;;;;4883498;29;20215;-64
2022/06/23 12:43:51;;;;;;;7.93;6.53;;;22.80;84.90;;;;;;4872005;29;20241;-64
2022/06/23 12:46:46;;;;;;;7.17;5.47;;;22.70;87.30;;;;;;4893453;29;20187;-64
2022/06/23 12:49:25;;;;;;;9.73;6.87;;;22.60;85.60;;;;;;4857265;29;20195;-64
2022/06/23 12:52:14;;;;;;;10.00;6.83;;;22.60;88.40;;;;;;4883794;29;20191;-64
2022/06/23 12:54:46;;;;;;;8.70;6.63;;;22.60;89.30;;;;;;4891534;29;20189;-64
2022/06/23 12:57:34;;;;;;;8.53;7.10;;;22.60;89.30;;;;;;4877141;29;20287;-64
2022/06/23 13:00:15;;;;;;;8.43;6.90;;;22.60;88.50;;;;;;4874778;29;20188;-64
2022/06/23 13:02:56;;;;;;;8.13;7.23;;;22.70;89.40;;;;;;4876537;29;20196;-64
2022/06/23 13:05:25;;;;;;;9.83;7.47;;;22.70;90.60;;;;;;4897639;29;20240;-63
2022/06/23 13:07:59;;;;;;;9.23;6.40;;;22.70;90.50;;;;;;4881793;29;20247;-63
2022/06/23 13:10:43;;;;;;;9.27;8.33;;;22.70;88.10;;;;;;4873462;29;20194;-64
2022/06/23 13:13:30;;;;;;;9.67;7.20;;;22.60;87.70;;;;;;4879793;29;20203;-64
2022/06/23 13:16:02;;;;;;;13.33;8.57;;;22.70;90.80;;;;;;4882484;29;20182;-64
2022/06/23 13:18:50;;;;;;;14.60;8.80;;;22.70;91.00;;;;;;4879488;29;20200;-64
2022/06/23 13:21:22;;;;;;;10.57;9.47;;;22.70;91.60;;;;;;4899336;29;20211;-64
2022/06/23 13:24:35;;;;;;;11.07;9.53;;;23.00;92.50;;;;;;4886215;29;20199;-64
2022/06/23 13:27:04;;;;;;;9.57;8.63;;;23.30;92.70;;;;;;4866165;29;20232;-64
2022/06/23 13:29:48;;;;;;;11.43;9.00;;;23.40;90.80;;;;;;4878468;29;20187;-65
2022/06/23 13:32:37;;;;;;;9.03;8.23;;;23.40;90.20;;;;;;4896661;29;20251;-64
2022/06/23 13:35:17;;;;;;;10.80;8.20;;;23.30;90.70;;;;;;4881833;29;20196;-64
2022/06/23 13:37:52;;;;;;;10.97;8.57;;;23.20;90.50;;;;;;4873496;29;20188;-64
2022/06/23 13:40:33;;;;;;;10.43;8.33;;;23.10;90.70;;;;;;4880053;29;20200;-64
2022/06/23 13:43:28;;;;;;;8.77;7.87;;;23.00;90.20;;;;;;4866810;29;20184;-65
2022/06/23 13:46:03;;;;;;;10.10;8.63;;;22.80;89.60;;;;;;4881172;29;20184;-64
2022/06/23 13:48:40;;;;;;;9.23;8.40;;;22.70;91.20;;;;;;4889597;29;20208;-64